sensor_id;sensor_type;location;lat;lon;timestamp;pressure;altitude;pressure_sealevel;temperature;humidity
32330;BME280;18807;52.434;13.238;2022-11-15T00:02:24;101112.66;;;5.64;100.00
32330;BME280;18807;52.434;13.238;2022-11-15T00:09:59;101117.69;;;5.58;100.00
32330;BME280;18807;52.434;13.238;2022-11-15T00:17:33;101119.84;;;5.46;100.00
32330;BME280;18807;52.434;13.238;2022-11-15T00:25:08;101106.59;;;5.46;100.00
32330;BME280;18807;52.434;13.238;2022-11-15T00:32:42;101091.13;;;5.35;100.00
32330;BME280;18807;52.434;13.238;2022-11-15T00:40:17;101097.28;;;5.34;100.00
32330;BME280;18807;52.434;13.238;2022-11-15T00:47:52;101084.84;;;5.33;100.00
32330;BME280;18807;52.434;13.238;2022-11-15T00:55:27;101068.84;;;5.30;100.00
32330;BME280;18807;52.434;13.238;2022-11-15T01:03:01;101076.66;;;5.27;100.00
32330;BME280;18807;52.434;13.238;2022-11-15T01:10:36;101070.09;;;5.17;100.00
32330;BME280;18807;52.434;13.238;2022-11-15T01:18:10;101068.94;;;5.11;100.00
32330;BME280;18807;52.434;13.238;2022-11-15T01:25:45;101059.97;;;5.07;100.00
32330;BME280;18807;52.434;13.238;2022-11-15T01:33:19;101042.94;;;5.01;100.00
32330;BME280;18807;52.434;13.238;2022-11-15T01:40:54;101032.63;;;4.86;100.00
32330;BME280;18807;52.434;13.238;2022-11-15T01:48:32;101023.63;;;4.83;100.00
32330;BME280;18807;52.434;13.238;2022-11-15T01:56:09;101015.56;;;4.80;100.00
32330;BME280;18807;52.434;13.238;2022-11-15T02:03:49;101008.34;;;4.76;100.00
32330;BME280;18807;52.434;13.238;2022-11-15T02:11:26;101000.16;;;4.70;100.00
32330;BME280;18807;52.434;13.238;2022-11-15T02:19:09;100995.53;;;4.64;100.00
32330;BME280;18807;52.434;13.238;2022-11-15T02:27:14;101006.03;;;4.63;100.00
32330;BME280;18807;52.434;13.238;2022-11-15T02:35:00;100996.16;;;4.59;100.00
32330;BME280;18807;52.434;13.238;2022-11-15T02:42:36;100986.22;;;4.53;100.00
32330;BME280;18807;52.434;13.238;2022-11-15T02:50:39;100976.91;;;4.42;100.00
32330;BME280;18807;52.434;13.238;2022-11-15T03:06:22;100981.97;;;4.36;100.00
32330;BME280;18807;52.434;13.238;2022-11-15T03:14:02;100979.88;;;4.29;100.00
32330;BME280;18807;52.434;13.238;2022-11-15T03:21:42;100981.59;;;4.27;100.00
32330;BME280;18807;52.434;13.238;2022-11-15T03:29:21;100974.34;;;4.23;100.00
32330;BME280;18807;52.434;13.238;2022-11-15T03:36:57;100976.84;;;4.20;100.00
32330;BME280;18807;52.434;13.238;2022-11-15T03:44:36;100981.19;;;4.18;100.00
32330;BME280;18807;52.434;13.238;2022-11-15T03:52:17;100976.63;;;4.15;100.00
32330;BME280;18807;52.434;13.238;2022-11-15T03:59:52;100968.66;;;4.14;100.00
32330;BME280;18807;52.434;13.238;2022-11-15T04:07:27;100953.56;;;4.11;100.00
32330;BME280;18807;52.434;13.238;2022-11-15T04:15:03;100956.66;;;4.01;100.00
32330;BME280;18807;52.434;13.238;2022-11-15T04:22:41;100954.88;;;4.00;100.00
32330;BME280;18807;52.434;13.238;2022-11-15T04:30:44;100947.69;;;3.98;100.00
32330;BME280;18807;52.434;13.238;2022-11-15T04:38:19;100942.25;;;3.95;100.00
32330;BME280;18807;52.434;13.238;2022-11-15T04:45:53;100936.16;;;3.96;100.00
32330;BME280;18807;52.434;13.238;2022-11-15T04:53:28;100932.47;;;3.92;100.00
32330;BME280;18807;52.434;13.238;2022-11-15T05:01:07;100930.81;;;3.94;100.00
32330;BME280;18807;52.434;13.238;2022-11-15T05:08:42;100934.97;;;3.89;100.00
32330;BME280;18807;52.434;13.238;2022-11-15T05:16:16;100945.47;;;3.88;100.00
32330;BME280;18807;52.434;13.238;2022-11-15T05:23:51;100939.28;;;3.87;100.00
32330;BME280;18807;52.434;13.238;2022-11-15T05:31:26;100954.13;;;3.84;100.00
32330;BME280;18807;52.434;13.238;2022-11-15T05:39:03;100938.19;;;3.82;100.00
32330;BME280;18807;52.434;13.238;2022-11-15T05:46:38;100930.34;;;3.84;100.00
32330;BME280;18807;52.434;13.238;2022-11-15T05:54:15;100932.97;;;3.84;100.00
32330;BME280;18807;52.434;13.238;2022-11-15T06:01:51;100931.16;;;3.83;100.00
32330;BME280;18807;52.434;13.238;2022-11-15T06:09:26;100933.72;;;3.81;100.00
32330;BME280;18807;52.434;13.238;2022-11-15T06:17:00;100940.84;;;3.82;100.00
32330;BME280;18807;52.434;13.238;2022-11-15T06:24:42;100940.63;;;3.78;100.00
32330;BME280;18807;52.434;13.238;2022-11-15T06:32:16;100948.50;;;3.76;100.00
32330;BME280;18807;52.434;13.238;2022-11-15T06:39:51;100947.56;;;3.76;100.00
32330;BME280;18807;52.434;13.238;2022-11-15T06:47:26;100956.41;;;3.76;100.00
32330;BME280;18807;52.434;13.238;2022-11-15T06:55:01;100968.00;;;3.80;100.00
32330;BME280;18807;52.434;13.238;2022-11-15T07:02:35;100970.78;;;3.83;100.00
32330;BME280;18807;52.434;13.238;2022-11-15T07:10:11;100965.63;;;3.86;100.00
32330;BME280;18807;52.434;13.238;2022-11-15T07:17:45;100970.50;;;3.96;100.00
32330;BME280;18807;52.434;13.238;2022-11-15T07:25:20;100975.69;;;4.13;100.00
32330;BME280;18807;52.434;13.238;2022-11-15T07:32:54;100981.31;;;4.21;100.00
32330;BME280;18807;52.434;13.238;2022-11-15T07:40:31;100976.44;;;4.30;100.00
32330;BME280;18807;52.434;13.238;2022-11-15T07:48:05;100977.41;;;4.73;100.00
32330;BME280;18807;52.434;13.238;2022-11-15T07:55:41;100963.44;;;5.43;100.00
32330;BME280;18807;52.434;13.238;2022-11-15T08:03:17;100955.84;;;5.98;100.00
32330;BME280;18807;52.434;13.238;2022-11-15T08:10:52;100958.06;;;6.35;100.00
32330;BME280;18807;52.434;13.238;2022-11-15T08:18:26;100947.69;;;6.94;100.00
32330;BME280;18807;52.434;13.238;2022-11-15T08:26:03;100944.50;;;7.33;100.00
32330;BME280;18807;52.434;13.238;2022-11-15T08:33:37;100947.31;;;7.67;100.00
32330;BME280;18807;52.434;13.238;2022-11-15T08:41:14;100954.91;;;7.85;100.00
32330;BME280;18807;52.434;13.238;2022-11-15T08:48:49;100940.16;;;8.26;100.00
32330;BME280;18807;52.434;13.238;2022-11-15T08:56:24;100941.84;;;8.56;100.00
32330;BME280;18807;52.434;13.238;2022-11-15T09:03:59;100935.31;;;8.78;100.00
32330;BME280;18807;52.434;13.238;2022-11-15T09:11:34;100930.88;;;8.78;100.00
32330;BME280;18807;52.434;13.238;2022-11-15T09:19:08;100940.91;;;8.88;100.00
32330;BME280;18807;52.434;13.238;2022-11-15T09:26:45;100945.50;;;8.95;100.00
32330;BME280;18807;52.434;13.238;2022-11-15T09:34:18;100946.72;;;9.08;100.00
32330;BME280;18807;52.434;13.238;2022-11-15T09:42:17;100945.00;;;9.11;100.00
32330;BME280;18807;52.434;13.238;2022-11-15T09:49:56;100947.38;;;8.99;100.00
32330;BME280;18807;52.434;13.238;2022-11-15T09:57:38;100946.06;;;9.18;100.00
32330;BME280;18807;52.434;13.238;2022-11-15T10:05:18;100930.91;;;9.17;100.00
32330;BME280;18807;52.434;13.238;2022-11-15T10:12:54;100922.06;;;9.18;100.00
32330;BME280;18807;52.434;13.238;2022-11-15T10:20:30;100915.72;;;9.51;100.00
32330;BME280;18807;52.434;13.238;2022-11-15T10:28:14;100898.31;;;9.68;100.00
32330;BME280;18807;52.434;13.238;2022-11-15T10:35:49;100880.84;;;9.85;100.00
32330;BME280;18807;52.434;13.238;2022-11-15T10:43:44;100866.72;;;9.91;100.00
32330;BME280;18807;52.434;13.238;2022-11-15T10:51:21;100848.63;;;10.20;100.00
32330;BME280;18807;52.434;13.238;2022-11-15T10:58:59;100844.75;;;10.52;100.00
32330;BME280;18807;52.434;13.238;2022-11-15T11:06:46;100838.69;;;10.62;100.00
32330;BME280;18807;52.434;13.238;2022-11-15T11:14:23;100823.63;;;10.68;100.00
32330;BME280;18807;52.434;13.238;2022-11-15T11:22:05;100825.88;;;10.98;100.00
32330;BME280;18807;52.434;13.238;2022-11-15T11:29:58;100825.84;;;10.95;100.00
32330;BME280;18807;52.434;13.238;2022-11-15T11:37:39;100813.03;;;11.38;100.00
32330;BME280;18807;52.434;13.238;2022-11-15T11:45:22;100815.13;;;11.62;100.00
32330;BME280;18807;52.434;13.238;2022-11-15T11:53:03;100797.25;;;11.59;100.00
32330;BME280;18807;52.434;13.238;2022-11-15T12:00:47;100788.31;;;11.59;100.00
32330;BME280;18807;52.434;13.238;2022-11-15T12:08:30;100774.16;;;11.63;100.00
32330;BME280;18807;52.434;13.238;2022-11-15T12:16:12;100777.84;;;11.77;100.00
32330;BME280;18807;52.434;13.238;2022-11-15T12:23:52;100769.81;;;11.75;100.00
32330;BME280;18807;52.434;13.238;2022-11-15T12:31:38;100753.75;;;11.77;100.00
32330;BME280;18807;52.434;13.238;2022-11-15T12:39:14;100752.00;;;11.77;100.00
32330;BME280;18807;52.434;13.238;2022-11-15T12:47:22;100745.16;;;12.11;100.00
32330;BME280;18807;52.434;13.238;2022-11-15T12:55:02;100737.38;;;12.41;99.94
32330;BME280;18807;52.434;13.238;2022-11-15T13:02:39;100728.38;;;12.35;100.00
32330;BME280;18807;52.434;13.238;2022-11-15T13:10:29;100732.94;;;12.46;99.71
32330;BME280;18807;52.434;13.238;2022-11-15T13:26:15;100718.50;;;12.26;100.00
32330;BME280;18807;52.434;13.238;2022-11-15T13:33:50;100709.69;;;12.42;100.00
32330;BME280;18807;52.434;13.238;2022-11-15T13:41:27;100708.81;;;12.42;100.00
32330;BME280;18807;52.434;13.238;2022-11-15T13:49:03;100707.84;;;12.34;100.00
32330;BME280;18807;52.434;13.238;2022-11-15T13:56:40;100691.97;;;12.62;98.94
32330;BME280;18807;52.434;13.238;2022-11-15T14:04:19;100700.00;;;12.64;97.44
32330;BME280;18807;52.434;13.238;2022-11-15T14:11:56;100703.47;;;12.43;100.00
32330;BME280;18807;52.434;13.238;2022-11-15T14:19:36;100691.78;;;12.37;100.00
32330;BME280;18807;52.434;13.238;2022-11-15T14:27:24;100682.91;;;12.42;100.00
32330;BME280;18807;52.434;13.238;2022-11-15T14:34:59;100692.75;;;12.43;100.00
32330;BME280;18807;52.434;13.238;2022-11-15T14:42:34;100690.03;;;12.39;100.00
32330;BME280;18807;52.434;13.238;2022-11-15T14:50:11;100683.69;;;12.25;100.00
32330;BME280;18807;52.434;13.238;2022-11-15T14:57:47;100687.16;;;12.12;100.00
32330;BME280;18807;52.434;13.238;2022-11-15T15:05:22;100682.50;;;11.88;100.00
32330;BME280;18807;52.434;13.238;2022-11-15T15:12:58;100673.28;;;11.60;100.00
32330;BME280;18807;52.434;13.238;2022-11-15T15:20:32;100658.81;;;11.37;100.00
32330;BME280;18807;52.434;13.238;2022-11-15T15:28:13;100658.63;;;11.21;100.00
32330;BME280;18807;52.434;13.238;2022-11-15T15:35:47;100667.34;;;11.02;100.00
32330;BME280;18807;52.434;13.238;2022-11-15T15:43:23;100663.59;;;10.88;100.00
32330;BME280;18807;52.434;13.238;2022-11-15T15:50:57;100649.28;;;10.81;100.00
32330;BME280;18807;52.434;13.238;2022-11-15T15:58:32;100638.38;;;10.65;100.00
32330;BME280;18807;52.434;13.238;2022-11-15T16:14:12;100628.34;;;10.46;100.00
32330;BME280;18807;52.434;13.238;2022-11-15T16:21:47;100626.38;;;10.34;100.00
32330;BME280;18807;52.434;13.238;2022-11-15T16:29:22;100619.97;;;10.20;100.00
32330;BME280;18807;52.434;13.238;2022-11-15T16:36:56;100618.06;;;10.10;100.00
32330;BME280;18807;52.434;13.238;2022-11-15T16:44:31;100605.50;;;10.06;100.00
32330;BME280;18807;52.434;13.238;2022-11-15T16:52:05;100609.03;;;10.03;100.00
32330;BME280;18807;52.434;13.238;2022-11-15T16:59:40;100600.88;;;9.94;100.00
32330;BME280;18807;52.434;13.238;2022-11-15T17:07:14;100602.63;;;9.89;100.00
32330;BME280;18807;52.434;13.238;2022-11-15T17:14:50;100603.41;;;9.85;100.00
32330;BME280;18807;52.434;13.238;2022-11-15T17:22:24;100591.81;;;9.80;100.00
32330;BME280;18807;52.434;13.238;2022-11-15T17:29:59;100599.75;;;9.77;100.00
32330;BME280;18807;52.434;13.238;2022-11-15T17:37:34;100599.66;;;9.71;100.00
32330;BME280;18807;52.434;13.238;2022-11-15T17:45:10;100590.66;;;9.65;100.00
32330;BME280;18807;52.434;13.238;2022-11-15T17:52:44;100586.91;;;9.52;100.00
32330;BME280;18807;52.434;13.238;2022-11-15T18:00:19;100590.31;;;9.44;100.00
32330;BME280;18807;52.434;13.238;2022-11-15T18:08:01;100596.38;;;9.35;100.00
32330;BME280;18807;52.434;13.238;2022-11-15T18:15:36;100590.84;;;9.23;100.00
32330;BME280;18807;52.434;13.238;2022-11-15T18:23:10;100589.81;;;9.14;100.00
32330;BME280;18807;52.434;13.238;2022-11-15T18:30:45;100579.00;;;9.06;100.00
32330;BME280;18807;52.434;13.238;2022-11-15T18:38:19;100578.91;;;9.00;100.00
32330;BME280;18807;52.434;13.238;2022-11-15T18:45:54;100577.81;;;8.91;100.00
32330;BME280;18807;52.434;13.238;2022-11-15T18:53:28;100577.59;;;8.79;100.00
32330;BME280;18807;52.434;13.238;2022-11-15T19:01:06;100574.63;;;8.64;100.00
32330;BME280;18807;52.434;13.238;2022-11-15T19:08:42;100571.88;;;8.59;100.00
32330;BME280;18807;52.434;13.238;2022-11-15T19:16:20;100561.06;;;8.52;100.00
32330;BME280;18807;52.434;13.238;2022-11-15T19:23:55;100563.69;;;8.50;100.00
32330;BME280;18807;52.434;13.238;2022-11-15T19:31:31;100562.56;;;8.38;100.00
32330;BME280;18807;52.434;13.238;2022-11-15T19:39:07;100570.56;;;8.38;100.00
32330;BME280;18807;52.434;13.238;2022-11-15T19:46:43;100570.38;;;8.29;100.00
32330;BME280;18807;52.434;13.238;2022-11-15T19:54:17;100554.38;;;8.27;100.00
32330;BME280;18807;52.434;13.238;2022-11-15T20:01:53;100564.84;;;8.21;100.00
32330;BME280;18807;52.434;13.238;2022-11-15T20:09:27;100559.31;;;8.10;100.00
32330;BME280;18807;52.434;13.238;2022-11-15T20:17:02;100565.47;;;8.08;100.00
32330;BME280;18807;52.434;13.238;2022-11-15T20:24:36;100569.78;;;8.03;100.00
32330;BME280;18807;52.434;13.238;2022-11-15T20:32:11;100560.50;;;7.84;100.00
32330;BME280;18807;52.434;13.238;2022-11-15T20:39:45;100566.59;;;7.80;100.00
32330;BME280;18807;52.434;13.238;2022-11-15T20:47:21;100561.91;;;7.69;100.00
32330;BME280;18807;52.434;13.238;2022-11-15T20:55:01;100559.97;;;7.62;100.00
32330;BME280;18807;52.434;13.238;2022-11-15T21:02:36;100559.56;;;7.45;100.00
32330;BME280;18807;52.434;13.238;2022-11-15T21:10:11;100554.44;;;7.53;100.00
32330;BME280;18807;52.434;13.238;2022-11-15T21:18:04;100551.72;;;7.50;100.00
32330;BME280;18807;52.434;13.238;2022-11-15T21:25:38;100545.22;;;7.39;100.00
32330;BME280;18807;52.434;13.238;2022-11-15T21:33:13;100535.47;;;7.38;100.00
32330;BME280;18807;52.434;13.238;2022-11-15T21:40:48;100533.31;;;7.22;100.00
32330;BME280;18807;52.434;13.238;2022-11-15T21:48:24;100527.06;;;7.20;100.00
32330;BME280;18807;52.434;13.238;2022-11-15T21:55:59;100514.56;;;7.16;100.00
32330;BME280;18807;52.434;13.238;2022-11-15T22:03:34;100525.97;;;7.10;100.00
32330;BME280;18807;52.434;13.238;2022-11-15T22:11:08;100520.31;;;6.97;100.00
32330;BME280;18807;52.434;13.238;2022-11-15T22:18:44;100514.72;;;6.86;100.00
32330;BME280;18807;52.434;13.238;2022-11-15T22:26:19;100500.41;;;6.81;100.00
32330;BME280;18807;52.434;13.238;2022-11-15T22:33:57;100496.66;;;6.72;100.00
32330;BME280;18807;52.434;13.238;2022-11-15T22:41:31;100506.56;;;6.79;100.00
32330;BME280;18807;52.434;13.238;2022-11-15T22:49:06;100498.41;;;6.71;100.00
32330;BME280;18807;52.434;13.238;2022-11-15T22:56:41;100488.63;;;6.69;100.00
32330;BME280;18807;52.434;13.238;2022-11-15T23:04:16;100483.16;;;6.63;100.00
32330;BME280;18807;52.434;13.238;2022-11-15T23:11:50;100480.94;;;6.47;100.00
32330;BME280;18807;52.434;13.238;2022-11-15T23:19:43;100466.19;;;6.25;100.00
32330;BME280;18807;52.434;13.238;2022-11-15T23:27:17;100464.09;;;6.12;100.00
32330;BME280;18807;52.434;13.238;2022-11-15T23:34:53;100453.84;;;6.26;100.00
32330;BME280;18807;52.434;13.238;2022-11-15T23:42:27;100458.13;;;6.21;100.00
32330;BME280;18807;52.434;13.238;2022-11-15T23:50:04;100462.00;;;6.33;100.00
32330;BME280;18807;52.434;13.238;2022-11-15T23:57:39;100461.03;;;6.30;100.00
